sensor_id;sensor_type;location;lat;lon;timestamp;P1;durP1;ratioP1;P2;durP2;ratioP2
29344;SDS011;16339;48.748;2.222;2024-03-02T00:01:51;3.83;;;1.30;;
29344;SDS011;16339;48.748;2.222;2024-03-02T00:04:22;6.07;;;1.42;;
29344;SDS011;16339;48.748;2.222;2024-03-02T00:06:54;7.68;;;1.70;;
29344;SDS011;16339;48.748;2.222;2024-03-02T00:09:23;7.22;;;1.67;;
29344;SDS011;16339;48.748;2.222;2024-03-02T00:11:52;6.45;;;1.55;;
29344;SDS011;16339;48.748;2.222;2024-03-02T00:14:21;3.90;;;1.45;;
29344;SDS011;16339;48.748;2.222;2024-03-02T00:16:52;7.20;;;1.70;;
29344;SDS011;16339;48.748;2.222;2024-03-02T00:19:30;6.53;;;1.50;;
29344;SDS011;16339;48.748;2.222;2024-03-02T00:22:02;12.70;;;1.88;;
29344;SDS011;16339;48.748;2.222;2024-03-02T00:24:33;5.70;;;1.77;;
29344;SDS011;16339;48.748;2.222;2024-03-02T00:27:03;9.93;;;2.05;;
29344;SDS011;16339;48.748;2.222;2024-03-02T00:29:36;2.95;;;1.23;;
29344;SDS011;16339;48.748;2.222;2024-03-02T00:32:07;7.03;;;1.50;;
29344;SDS011;16339;48.748;2.222;2024-03-02T00:34:40;3.75;;;1.20;;
29344;SDS011;16339;48.748;2.222;2024-03-02T00:37:11;7.22;;;1.55;;
29344;SDS011;16339;48.748;2.222;2024-03-02T00:39:42;10.52;;;1.63;;
29344;SDS011;16339;48.748;2.222;2024-03-02T00:42:10;6.80;;;1.95;;
29344;SDS011;16339;48.748;2.222;2024-03-02T00:44:40;3.88;;;1.45;;
29344;SDS011;16339;48.748;2.222;2024-03-02T00:47:09;6.25;;;1.38;;
29344;SDS011;16339;48.748;2.222;2024-03-02T00:49:40;9.55;;;1.83;;
29344;SDS011;16339;48.748;2.222;2024-03-02T00:52:08;5.30;;;1.50;;
29344;SDS011;16339;48.748;2.222;2024-03-02T00:54:44;7.88;;;1.75;;
29344;SDS011;16339;48.748;2.222;2024-03-02T00:57:13;3.90;;;1.63;;
29344;SDS011;16339;48.748;2.222;2024-03-02T00:59:43;8.02;;;1.55;;
29344;SDS011;16339;48.748;2.222;2024-03-02T01:02:13;6.10;;;1.73;;
29344;SDS011;16339;48.748;2.222;2024-03-02T01:04:41;12.18;;;2.08;;
29344;SDS011;16339;48.748;2.222;2024-03-02T01:07:13;4.50;;;1.45;;
29344;SDS011;16339;48.748;2.222;2024-03-02T01:09:44;8.48;;;1.60;;
29344;SDS011;16339;48.748;2.222;2024-03-02T01:12:15;4.95;;;1.60;;
29344;SDS011;16339;48.748;2.222;2024-03-02T01:14:44;10.97;;;1.97;;
29344;SDS011;16339;48.748;2.222;2024-03-02T01:17:14;8.50;;;1.60;;
29344;SDS011;16339;48.748;2.222;2024-03-02T01:19:43;8.07;;;1.85;;
29344;SDS011;16339;48.748;2.222;2024-03-02T01:22:15;3.22;;;1.60;;
29344;SDS011;16339;48.748;2.222;2024-03-02T01:24:50;12.18;;;1.95;;
29344;SDS011;16339;48.748;2.222;2024-03-02T01:27:19;3.55;;;1.40;;
29344;SDS011;16339;48.748;2.222;2024-03-02T01:29:48;7.30;;;1.67;;
29344;SDS011;16339;48.748;2.222;2024-03-02T01:32:18;9.55;;;1.67;;
29344;SDS011;16339;48.748;2.222;2024-03-02T01:34:47;4.40;;;1.60;;
29344;SDS011;16339;48.748;2.222;2024-03-02T01:37:18;10.45;;;1.60;;
29344;SDS011;16339;48.748;2.222;2024-03-02T01:39:47;4.53;;;1.52;;
29344;SDS011;16339;48.748;2.222;2024-03-02T01:42:15;9.40;;;1.70;;
29344;SDS011;16339;48.748;2.222;2024-03-02T01:44:44;13.80;;;2.97;;
29344;SDS011;16339;48.748;2.222;2024-03-02T01:47:13;8.02;;;1.77;;
29344;SDS011;16339;48.748;2.222;2024-03-02T01:49:42;10.30;;;1.90;;
29344;SDS011;16339;48.748;2.222;2024-03-02T01:52:10;5.93;;;1.88;;
29344;SDS011;16339;48.748;2.222;2024-03-02T01:54:42;5.07;;;1.17;;
29344;SDS011;16339;48.748;2.222;2024-03-02T01:57:11;7.30;;;1.70;;
29344;SDS011;16339;48.748;2.222;2024-03-02T01:59:39;5.72;;;1.60;;
29344;SDS011;16339;48.748;2.222;2024-03-02T02:02:08;13.25;;;1.98;;
29344;SDS011;16339;48.748;2.222;2024-03-02T02:04:37;9.30;;;1.63;;
29344;SDS011;16339;48.748;2.222;2024-03-02T02:07:05;6.50;;;1.73;;
29344;SDS011;16339;48.748;2.222;2024-03-02T02:09:34;11.07;;;1.48;;
29344;SDS011;16339;48.748;2.222;2024-03-02T02:12:06;11.15;;;1.95;;
29344;SDS011;16339;48.748;2.222;2024-03-02T02:14:37;9.40;;;1.67;;
29344;SDS011;16339;48.748;2.222;2024-03-02T02:17:08;13.23;;;1.60;;
29344;SDS011;16339;48.748;2.222;2024-03-02T02:19:37;10.52;;;1.85;;
29344;SDS011;16339;48.748;2.222;2024-03-02T02:22:10;6.72;;;1.40;;
29344;SDS011;16339;48.748;2.222;2024-03-02T02:24:39;10.50;;;1.90;;
29344;SDS011;16339;48.748;2.222;2024-03-02T02:27:09;15.40;;;2.13;;
29344;SDS011;16339;48.748;2.222;2024-03-02T02:29:40;3.95;;;1.45;;
29344;SDS011;16339;48.748;2.222;2024-03-02T02:32:09;7.80;;;1.52;;
29344;SDS011;16339;48.748;2.222;2024-03-02T02:34:38;6.50;;;1.63;;
29344;SDS011;16339;48.748;2.222;2024-03-02T02:37:06;10.15;;;1.85;;
29344;SDS011;16339;48.748;2.222;2024-03-02T02:39:38;7.38;;;1.58;;
29344;SDS011;16339;48.748;2.222;2024-03-02T02:42:06;19.98;;;2.08;;
29344;SDS011;16339;48.748;2.222;2024-03-02T02:44:35;7.75;;;1.42;;
29344;SDS011;16339;48.748;2.222;2024-03-02T02:47:05;4.05;;;1.50;;
29344;SDS011;16339;48.748;2.222;2024-03-02T02:49:34;5.90;;;1.58;;
29344;SDS011;16339;48.748;2.222;2024-03-02T02:52:03;11.45;;;2.30;;
29344;SDS011;16339;48.748;2.222;2024-03-02T02:54:32;14.10;;;2.10;;
29344;SDS011;16339;48.748;2.222;2024-03-02T02:57:03;4.55;;;1.77;;
29344;SDS011;16339;48.748;2.222;2024-03-02T02:59:35;3.78;;;1.45;;
29344;SDS011;16339;48.748;2.222;2024-03-02T03:02:05;11.85;;;1.38;;
29344;SDS011;16339;48.748;2.222;2024-03-02T03:04:34;21.02;;;2.03;;
29344;SDS011;16339;48.748;2.222;2024-03-02T03:07:07;8.50;;;2.22;;
29344;SDS011;16339;48.748;2.222;2024-03-02T03:09:37;19.25;;;2.00;;
29344;SDS011;16339;48.748;2.222;2024-03-02T03:12:09;10.73;;;1.85;;
29344;SDS011;16339;48.748;2.222;2024-03-02T03:14:40;5.03;;;1.70;;
29344;SDS011;16339;48.748;2.222;2024-03-02T03:17:09;11.38;;;1.80;;
29344;SDS011;16339;48.748;2.222;2024-03-02T03:19:38;6.10;;;1.80;;
29344;SDS011;16339;48.748;2.222;2024-03-02T03:22:06;9.00;;;1.60;;
29344;SDS011;16339;48.748;2.222;2024-03-02T03:24:35;19.45;;;2.50;;
29344;SDS011;16339;48.748;2.222;2024-03-02T03:27:05;13.52;;;2.47;;
29344;SDS011;16339;48.748;2.222;2024-03-02T03:29:37;11.98;;;2.40;;
29344;SDS011;16339;48.748;2.222;2024-03-02T03:32:06;9.02;;;1.52;;
29344;SDS011;16339;48.748;2.222;2024-03-02T03:34:36;10.07;;;2.10;;
29344;SDS011;16339;48.748;2.222;2024-03-02T03:37:07;6.45;;;1.65;;
29344;SDS011;16339;48.748;2.222;2024-03-02T03:39:36;7.30;;;1.60;;
29344;SDS011;16339;48.748;2.222;2024-03-02T03:42:05;12.00;;;2.03;;
29344;SDS011;16339;48.748;2.222;2024-03-02T03:47:07;10.77;;;2.05;;
29344;SDS011;16339;48.748;2.222;2024-03-02T03:49:36;10.55;;;1.95;;
29344;SDS011;16339;48.748;2.222;2024-03-02T03:52:04;5.20;;;1.45;;
29344;SDS011;16339;48.748;2.222;2024-03-02T03:54:33;4.28;;;1.42;;
29344;SDS011;16339;48.748;2.222;2024-03-02T03:57:03;10.00;;;1.50;;
29344;SDS011;16339;48.748;2.222;2024-03-02T03:59:35;10.63;;;1.60;;
29344;SDS011;16339;48.748;2.222;2024-03-02T04:02:04;10.75;;;1.67;;
29344;SDS011;16339;48.748;2.222;2024-03-02T04:04:33;10.13;;;1.95;;
29344;SDS011;16339;48.748;2.222;2024-03-02T04:07:02;9.30;;;1.50;;
29344;SDS011;16339;48.748;2.222;2024-03-02T04:09:31;9.13;;;1.63;;
29344;SDS011;16339;48.748;2.222;2024-03-02T04:11:59;7.07;;;1.73;;
29344;SDS011;16339;48.748;2.222;2024-03-02T04:14:28;6.50;;;1.70;;
29344;SDS011;16339;48.748;2.222;2024-03-02T04:17:00;10.30;;;1.63;;
29344;SDS011;16339;48.748;2.222;2024-03-02T04:19:28;9.70;;;1.67;;
29344;SDS011;16339;48.748;2.222;2024-03-02T04:21:57;11.48;;;1.80;;
29344;SDS011;16339;48.748;2.222;2024-03-02T04:24:26;7.03;;;1.75;;
29344;SDS011;16339;48.748;2.222;2024-03-02T04:26:56;6.18;;;1.35;;
29344;SDS011;16339;48.748;2.222;2024-03-02T04:29:25;8.43;;;1.30;;
29344;SDS011;16339;48.748;2.222;2024-03-02T04:31:53;10.50;;;1.83;;
29344;SDS011;16339;48.748;2.222;2024-03-02T04:34:28;9.43;;;1.80;;
29344;SDS011;16339;48.748;2.222;2024-03-02T04:37:00;18.00;;;1.70;;
29344;SDS011;16339;48.748;2.222;2024-03-02T04:39:37;12.30;;;1.85;;
29344;SDS011;16339;48.748;2.222;2024-03-02T04:42:25;5.57;;;1.55;;
29344;SDS011;16339;48.748;2.222;2024-03-02T04:45:01;16.65;;;1.98;;
29344;SDS011;16339;48.748;2.222;2024-03-02T04:47:50;14.13;;;2.08;;
29344;SDS011;16339;48.748;2.222;2024-03-02T04:50:43;7.95;;;1.95;;
29344;SDS011;16339;48.748;2.222;2024-03-02T04:53:20;7.30;;;1.65;;
29344;SDS011;16339;48.748;2.222;2024-03-02T04:56:03;11.98;;;1.50;;
29344;SDS011;16339;48.748;2.222;2024-03-02T05:02:35;9.38;;;2.08;;
29344;SDS011;16339;48.748;2.222;2024-03-02T05:08:27;12.20;;;1.60;;
29344;SDS011;16339;48.748;2.222;2024-03-02T05:11:13;11.95;;;1.95;;
29344;SDS011;16339;48.748;2.222;2024-03-02T05:14:08;10.80;;;2.03;;
29344;SDS011;16339;48.748;2.222;2024-03-02T05:16:38;15.75;;;1.65;;
29344;SDS011;16339;48.748;2.222;2024-03-02T05:19:06;13.07;;;2.00;;
29344;SDS011;16339;48.748;2.222;2024-03-02T05:21:38;9.52;;;1.67;;
29344;SDS011;16339;48.748;2.222;2024-03-02T05:26:35;6.43;;;1.70;;
29344;SDS011;16339;48.748;2.222;2024-03-02T05:29:04;9.68;;;2.28;;
29344;SDS011;16339;48.748;2.222;2024-03-02T05:31:33;7.05;;;1.55;;
29344;SDS011;16339;48.748;2.222;2024-03-02T05:34:01;5.63;;;1.23;;
29344;SDS011;16339;48.748;2.222;2024-03-02T05:36:30;17.98;;;2.60;;
29344;SDS011;16339;48.748;2.222;2024-03-02T05:39:04;9.88;;;1.48;;
29344;SDS011;16339;48.748;2.222;2024-03-02T05:41:35;8.70;;;1.40;;
29344;SDS011;16339;48.748;2.222;2024-03-02T05:44:04;10.57;;;1.70;;
29344;SDS011;16339;48.748;2.222;2024-03-02T05:46:33;14.73;;;1.90;;
29344;SDS011;16339;48.748;2.222;2024-03-02T05:49:01;21.95;;;1.60;;
29344;SDS011;16339;48.748;2.222;2024-03-02T05:51:30;16.48;;;2.47;;
29344;SDS011;16339;48.748;2.222;2024-03-02T05:54:06;12.85;;;2.25;;
29344;SDS011;16339;48.748;2.222;2024-03-02T05:56:35;21.35;;;2.55;;
29344;SDS011;16339;48.748;2.222;2024-03-02T05:59:05;15.25;;;2.47;;
29344;SDS011;16339;48.748;2.222;2024-03-02T06:01:41;11.15;;;2.22;;
29344;SDS011;16339;48.748;2.222;2024-03-02T06:04:13;5.07;;;1.33;;
29344;SDS011;16339;48.748;2.222;2024-03-02T06:06:42;10.45;;;1.73;;
29344;SDS011;16339;48.748;2.222;2024-03-02T06:09:15;13.48;;;1.73;;
29344;SDS011;16339;48.748;2.222;2024-03-02T06:11:58;13.63;;;1.40;;
29344;SDS011;16339;48.748;2.222;2024-03-02T06:14:30;11.35;;;1.52;;
29344;SDS011;16339;48.748;2.222;2024-03-02T06:17:26;7.63;;;1.42;;
29344;SDS011;16339;48.748;2.222;2024-03-02T06:20:07;10.32;;;2.38;;
29344;SDS011;16339;48.748;2.222;2024-03-02T06:22:38;14.30;;;2.47;;
29344;SDS011;16339;48.748;2.222;2024-03-02T06:25:11;10.93;;;2.20;;
29344;SDS011;16339;48.748;2.222;2024-03-02T06:27:40;7.68;;;1.70;;
29344;SDS011;16339;48.748;2.222;2024-03-02T06:30:09;11.23;;;2.10;;
29344;SDS011;16339;48.748;2.222;2024-03-02T06:32:39;10.43;;;2.05;;
29344;SDS011;16339;48.748;2.222;2024-03-02T06:35:08;8.98;;;2.30;;
29344;SDS011;16339;48.748;2.222;2024-03-02T06:37:38;12.93;;;2.28;;
29344;SDS011;16339;48.748;2.222;2024-03-02T06:40:10;8.40;;;1.73;;
29344;SDS011;16339;48.748;2.222;2024-03-02T06:42:44;11.77;;;2.05;;
29344;SDS011;16339;48.748;2.222;2024-03-02T06:45:14;18.90;;;2.42;;
29344;SDS011;16339;48.748;2.222;2024-03-02T06:47:43;23.15;;;2.40;;
29344;SDS011;16339;48.748;2.222;2024-03-02T06:50:12;12.02;;;2.42;;
29344;SDS011;16339;48.748;2.222;2024-03-02T06:52:41;15.35;;;2.08;;
29344;SDS011;16339;48.748;2.222;2024-03-02T06:55:12;13.75;;;2.30;;
29344;SDS011;16339;48.748;2.222;2024-03-02T06:57:45;3.58;;;1.65;;
29344;SDS011;16339;48.748;2.222;2024-03-02T07:00:17;8.70;;;2.08;;
29344;SDS011;16339;48.748;2.222;2024-03-02T07:02:51;5.38;;;1.80;;
29344;SDS011;16339;48.748;2.222;2024-03-02T07:05:23;19.58;;;2.20;;
29344;SDS011;16339;48.748;2.222;2024-03-02T07:08:03;18.98;;;2.10;;
29344;SDS011;16339;48.748;2.222;2024-03-02T07:10:43;7.38;;;2.22;;
29344;SDS011;16339;48.748;2.222;2024-03-02T07:13:23;23.80;;;2.30;;
29344;SDS011;16339;48.748;2.222;2024-03-02T07:15:57;10.35;;;2.03;;
29344;SDS011;16339;48.748;2.222;2024-03-02T07:18:55;15.15;;;3.08;;
29344;SDS011;16339;48.748;2.222;2024-03-02T07:21:37;16.05;;;1.38;;
29344;SDS011;16339;48.748;2.222;2024-03-02T07:24:10;10.73;;;1.88;;
29344;SDS011;16339;48.748;2.222;2024-03-02T07:26:44;8.77;;;2.10;;
29344;SDS011;16339;48.748;2.222;2024-03-02T07:29:15;8.55;;;2.47;;
29344;SDS011;16339;48.748;2.222;2024-03-02T07:31:49;10.27;;;2.55;;
29344;SDS011;16339;48.748;2.222;2024-03-02T07:34:21;8.55;;;1.85;;
29344;SDS011;16339;48.748;2.222;2024-03-02T07:36:49;6.93;;;1.65;;
29344;SDS011;16339;48.748;2.222;2024-03-02T07:39:18;15.85;;;2.22;;
29344;SDS011;16339;48.748;2.222;2024-03-02T07:41:53;12.35;;;2.30;;
29344;SDS011;16339;48.748;2.222;2024-03-02T07:46:51;6.35;;;1.70;;
29344;SDS011;16339;48.748;2.222;2024-03-02T07:49:19;14.68;;;3.05;;
29344;SDS011;16339;48.748;2.222;2024-03-02T07:51:48;9.45;;;3.03;;
29344;SDS011;16339;48.748;2.222;2024-03-02T07:54:17;7.88;;;2.50;;
29344;SDS011;16339;48.748;2.222;2024-03-02T07:57:02;16.73;;;2.33;;
29344;SDS011;16339;48.748;2.222;2024-03-02T07:59:33;15.57;;;2.40;;
29344;SDS011;16339;48.748;2.222;2024-03-02T08:04:39;12.57;;;2.03;;
29344;SDS011;16339;48.748;2.222;2024-03-02T08:07:08;11.48;;;2.30;;
29344;SDS011;16339;48.748;2.222;2024-03-02T08:09:37;14.80;;;2.22;;
29344;SDS011;16339;48.748;2.222;2024-03-02T08:12:08;23.15;;;2.30;;
29344;SDS011;16339;48.748;2.222;2024-03-02T08:17:13;8.70;;;2.50;;
29344;SDS011;16339;48.748;2.222;2024-03-02T08:19:47;10.70;;;2.22;;
29344;SDS011;16339;48.748;2.222;2024-03-02T08:22:16;24.73;;;2.90;;
29344;SDS011;16339;48.748;2.222;2024-03-02T08:24:48;11.80;;;2.30;;
29344;SDS011;16339;48.748;2.222;2024-03-02T08:27:22;7.63;;;2.10;;
29344;SDS011;16339;48.748;2.222;2024-03-02T08:29:53;13.73;;;2.30;;
29344;SDS011;16339;48.748;2.222;2024-03-02T08:32:25;6.95;;;1.98;;
29344;SDS011;16339;48.748;2.222;2024-03-02T08:34:54;9.57;;;2.13;;
29344;SDS011;16339;48.748;2.222;2024-03-02T08:37:22;11.43;;;2.53;;
29344;SDS011;16339;48.748;2.222;2024-03-02T08:39:51;14.13;;;1.88;;
29344;SDS011;16339;48.748;2.222;2024-03-02T08:42:23;12.10;;;2.10;;
29344;SDS011;16339;48.748;2.222;2024-03-02T08:44:51;14.63;;;2.58;;
29344;SDS011;16339;48.748;2.222;2024-03-02T08:47:20;12.93;;;2.88;;
29344;SDS011;16339;48.748;2.222;2024-03-02T08:49:49;10.95;;;1.85;;
29344;SDS011;16339;48.748;2.222;2024-03-02T08:52:18;13.95;;;2.40;;
29344;SDS011;16339;48.748;2.222;2024-03-02T08:54:49;8.38;;;1.90;;
29344;SDS011;16339;48.748;2.222;2024-03-02T08:57:18;11.65;;;1.90;;
29344;SDS011;16339;48.748;2.222;2024-03-02T08:59:49;10.82;;;1.55;;
29344;SDS011;16339;48.748;2.222;2024-03-02T09:04:50;14.98;;;1.95;;
29344;SDS011;16339;48.748;2.222;2024-03-02T09:07:22;11.63;;;1.85;;
29344;SDS011;16339;48.748;2.222;2024-03-02T09:09:50;10.30;;;1.83;;
29344;SDS011;16339;48.748;2.222;2024-03-02T09:12:19;14.10;;;1.67;;
29344;SDS011;16339;48.748;2.222;2024-03-02T09:14:50;10.55;;;1.95;;
29344;SDS011;16339;48.748;2.222;2024-03-02T09:17:22;8.55;;;1.80;;
29344;SDS011;16339;48.748;2.222;2024-03-02T09:19:51;11.68;;;2.05;;
29344;SDS011;16339;48.748;2.222;2024-03-02T09:22:20;7.28;;;2.13;;
29344;SDS011;16339;48.748;2.222;2024-03-02T09:24:52;8.63;;;2.35;;
29344;SDS011;16339;48.748;2.222;2024-03-02T09:29:52;6.38;;;1.65;;
29344;SDS011;16339;48.748;2.222;2024-03-02T09:34:49;7.97;;;1.80;;
29344;SDS011;16339;48.748;2.222;2024-03-02T09:37:18;8.57;;;2.20;;
29344;SDS011;16339;48.748;2.222;2024-03-02T09:39:47;7.65;;;1.92;;
29344;SDS011;16339;48.748;2.222;2024-03-02T09:42:17;7.40;;;2.60;;
29344;SDS011;16339;48.748;2.222;2024-03-02T09:44:46;9.95;;;2.45;;
29344;SDS011;16339;48.748;2.222;2024-03-02T09:47:20;13.35;;;3.05;;
29344;SDS011;16339;48.748;2.222;2024-03-02T09:49:52;13.38;;;3.08;;
29344;SDS011;16339;48.748;2.222;2024-03-02T09:52:31;8.93;;;2.92;;
29344;SDS011;16339;48.748;2.222;2024-03-02T09:55:03;10.10;;;2.80;;
29344;SDS011;16339;48.748;2.222;2024-03-02T10:00:00;6.68;;;2.40;;
29344;SDS011;16339;48.748;2.222;2024-03-02T10:02:32;7.82;;;2.20;;
29344;SDS011;16339;48.748;2.222;2024-03-02T10:05:01;10.05;;;2.53;;
29344;SDS011;16339;48.748;2.222;2024-03-02T10:07:30;8.43;;;2.72;;
29344;SDS011;16339;48.748;2.222;2024-03-02T10:10:00;7.55;;;3.40;;
29344;SDS011;16339;48.748;2.222;2024-03-02T10:15:09;7.80;;;3.10;;
29344;SDS011;16339;48.748;2.222;2024-03-02T10:17:40;6.97;;;2.88;;
29344;SDS011;16339;48.748;2.222;2024-03-02T10:20:23;14.13;;;3.25;;
29344;SDS011;16339;48.748;2.222;2024-03-02T10:22:54;16.70;;;3.10;;
29344;SDS011;16339;48.748;2.222;2024-03-02T10:25:29;7.85;;;2.70;;
29344;SDS011;16339;48.748;2.222;2024-03-02T10:28:01;8.50;;;3.08;;
29344;SDS011;16339;48.748;2.222;2024-03-02T10:30:31;8.50;;;2.63;;
29344;SDS011;16339;48.748;2.222;2024-03-02T10:33:05;10.52;;;2.22;;
29344;SDS011;16339;48.748;2.222;2024-03-02T10:35:34;8.32;;;2.35;;
29344;SDS011;16339;48.748;2.222;2024-03-02T10:38:04;12.20;;;2.90;;
29344;SDS011;16339;48.748;2.222;2024-03-02T10:40:33;5.25;;;2.10;;
29344;SDS011;16339;48.748;2.222;2024-03-02T10:43:02;5.68;;;2.17;;
29344;SDS011;16339;48.748;2.222;2024-03-02T10:45:32;4.80;;;1.90;;
29344;SDS011;16339;48.748;2.222;2024-03-02T10:48:05;10.30;;;1.77;;
29344;SDS011;16339;48.748;2.222;2024-03-02T10:50:35;6.90;;;1.45;;
29344;SDS011;16339;48.748;2.222;2024-03-02T10:53:04;3.17;;;1.63;;
29344;SDS011;16339;48.748;2.222;2024-03-02T10:55:32;7.90;;;1.77;;
29344;SDS011;16339;48.748;2.222;2024-03-02T10:58:01;1.60;;;1.33;;
29344;SDS011;16339;48.748;2.222;2024-03-02T11:00:33;3.95;;;1.50;;
29344;SDS011;16339;48.748;2.222;2024-03-02T11:03:06;1.77;;;1.30;;
29344;SDS011;16339;48.748;2.222;2024-03-02T11:05:40;3.25;;;1.17;;
29344;SDS011;16339;48.748;2.222;2024-03-02T11:08:12;2.70;;;0.77;;
29344;SDS011;16339;48.748;2.222;2024-03-02T11:10:45;2.20;;;0.88;;
29344;SDS011;16339;48.748;2.222;2024-03-02T11:13:20;0.90;;;0.65;;
29344;SDS011;16339;48.748;2.222;2024-03-02T11:15:53;7.32;;;0.70;;
29344;SDS011;16339;48.748;2.222;2024-03-02T11:18:29;1.85;;;0.63;;
29344;SDS011;16339;48.748;2.222;2024-03-02T11:20:59;2.00;;;1.00;;
29344;SDS011;16339;48.748;2.222;2024-03-02T11:23:33;1.63;;;0.77;;
29344;SDS011;16339;48.748;2.222;2024-03-02T11:26:16;2.00;;;0.77;;
29344;SDS011;16339;48.748;2.222;2024-03-02T11:28:47;2.38;;;0.65;;
29344;SDS011;16339;48.748;2.222;2024-03-02T11:31:16;2.33;;;0.80;;
29344;SDS011;16339;48.748;2.222;2024-03-02T11:33:50;5.13;;;0.85;;
29344;SDS011;16339;48.748;2.222;2024-03-02T11:36:19;3.42;;;0.90;;
29344;SDS011;16339;48.748;2.222;2024-03-02T11:38:48;1.55;;;0.70;;
29344;SDS011;16339;48.748;2.222;2024-03-02T11:41:18;1.17;;;0.80;;
29344;SDS011;16339;48.748;2.222;2024-03-02T11:43:47;4.32;;;0.95;;
29344;SDS011;16339;48.748;2.222;2024-03-02T11:46:16;1.95;;;0.82;;
29344;SDS011;16339;48.748;2.222;2024-03-02T11:48:45;1.40;;;0.75;;
29344;SDS011;16339;48.748;2.222;2024-03-02T11:51:20;0.60;;;0.52;;
29344;SDS011;16339;48.748;2.222;2024-03-02T11:54:04;2.20;;;0.85;;
29344;SDS011;16339;48.748;2.222;2024-03-02T11:56:40;0.93;;;0.50;;
29344;SDS011;16339;48.748;2.222;2024-03-02T11:59:16;0.73;;;0.73;;
29344;SDS011;16339;48.748;2.222;2024-03-02T12:01:47;1.35;;;0.70;;
29344;SDS011;16339;48.748;2.222;2024-03-02T12:04:31;2.75;;;0.77;;
29344;SDS011;16339;48.748;2.222;2024-03-02T12:07:06;2.88;;;0.70;;
29344;SDS011;16339;48.748;2.222;2024-03-02T12:09:40;1.40;;;0.70;;
29344;SDS011;16339;48.748;2.222;2024-03-02T12:12:13;4.18;;;0.90;;
29344;SDS011;16339;48.748;2.222;2024-03-02T12:14:50;1.15;;;0.80;;
29344;SDS011;16339;48.748;2.222;2024-03-02T12:17:20;1.58;;;0.98;;
29344;SDS011;16339;48.748;2.222;2024-03-02T12:19:50;2.38;;;0.98;;
29344;SDS011;16339;48.748;2.222;2024-03-02T12:22:21;2.25;;;1.08;;
29344;SDS011;16339;48.748;2.222;2024-03-02T12:27:18;1.80;;;0.95;;
29344;SDS011;16339;48.748;2.222;2024-03-02T12:29:47;0.93;;;0.80;;
29344;SDS011;16339;48.748;2.222;2024-03-02T12:32:16;1.30;;;0.70;;
29344;SDS011;16339;48.748;2.222;2024-03-02T12:34:48;2.03;;;0.50;;
29344;SDS011;16339;48.748;2.222;2024-03-02T12:37:21;2.40;;;0.82;;
29344;SDS011;16339;48.748;2.222;2024-03-02T12:39:59;0.80;;;0.60;;
29344;SDS011;16339;48.748;2.222;2024-03-02T12:42:27;1.30;;;0.70;;
29344;SDS011;16339;48.748;2.222;2024-03-02T12:44:56;3.25;;;0.77;;
29344;SDS011;16339;48.748;2.222;2024-03-02T12:47:25;1.50;;;1.10;;
29344;SDS011;16339;48.748;2.222;2024-03-02T12:49:54;0.95;;;0.60;;
29344;SDS011;16339;48.748;2.222;2024-03-02T12:52:27;0.82;;;0.75;;
29344;SDS011;16339;48.748;2.222;2024-03-02T12:54:57;0.95;;;0.60;;
29344;SDS011;16339;48.748;2.222;2024-03-02T12:57:28;4.25;;;0.88;;
29344;SDS011;16339;48.748;2.222;2024-03-02T13:00:00;1.55;;;0.70;;
29344;SDS011;16339;48.748;2.222;2024-03-02T13:02:39;1.00;;;0.52;;
29344;SDS011;16339;48.748;2.222;2024-03-02T13:05:08;1.13;;;0.80;;
29344;SDS011;16339;48.748;2.222;2024-03-02T13:07:41;1.77;;;0.73;;
29344;SDS011;16339;48.748;2.222;2024-03-02T13:10:11;0.70;;;0.70;;
29344;SDS011;16339;48.748;2.222;2024-03-02T13:12:43;1.23;;;0.70;;
29344;SDS011;16339;48.748;2.222;2024-03-02T13:15:13;3.13;;;0.70;;
29344;SDS011;16339;48.748;2.222;2024-03-02T13:17:44;1.48;;;0.90;;
29344;SDS011;16339;48.748;2.222;2024-03-02T13:20:14;2.30;;;1.20;;
29344;SDS011;16339;48.748;2.222;2024-03-02T13:22:47;1.10;;;0.90;;
29344;SDS011;16339;48.748;2.222;2024-03-02T13:25:17;7.43;;;1.30;;
29344;SDS011;16339;48.748;2.222;2024-03-02T13:27:46;1.77;;;1.20;;
29344;SDS011;16339;48.748;2.222;2024-03-02T13:30:16;1.83;;;1.35;;
29344;SDS011;16339;48.748;2.222;2024-03-02T13:32:45;3.78;;;1.38;;
29344;SDS011;16339;48.748;2.222;2024-03-02T13:35:14;1.33;;;1.15;;
29344;SDS011;16339;48.748;2.222;2024-03-02T13:37:42;3.50;;;1.25;;
29344;SDS011;16339;48.748;2.222;2024-03-02T13:40:14;2.38;;;1.45;;
29344;SDS011;16339;48.748;2.222;2024-03-02T13:42:45;2.97;;;1.63;;
29344;SDS011;16339;48.748;2.222;2024-03-02T13:45:14;3.50;;;2.03;;
29344;SDS011;16339;48.748;2.222;2024-03-02T13:47:43;4.32;;;2.50;;
29344;SDS011;16339;48.748;2.222;2024-03-02T13:50:12;9.93;;;4.00;;
29344;SDS011;16339;48.748;2.222;2024-03-02T13:52:45;4.80;;;2.63;;
29344;SDS011;16339;48.748;2.222;2024-03-02T13:55:28;4.20;;;2.17;;
29344;SDS011;16339;48.748;2.222;2024-03-02T13:57:57;6.85;;;1.80;;
29344;SDS011;16339;48.748;2.222;2024-03-02T14:00:26;1.45;;;1.33;;
29344;SDS011;16339;48.748;2.222;2024-03-02T14:02:54;3.10;;;1.08;;
29344;SDS011;16339;48.748;2.222;2024-03-02T14:05:23;1.05;;;0.95;;
29344;SDS011;16339;48.748;2.222;2024-03-02T14:07:52;1.88;;;1.27;;
29344;SDS011;16339;48.748;2.222;2024-03-02T14:10:23;1.27;;;1.00;;
29344;SDS011;16339;48.748;2.222;2024-03-02T14:12:53;1.30;;;1.00;;
29344;SDS011;16339;48.748;2.222;2024-03-02T14:15:22;2.38;;;1.05;;
29344;SDS011;16339;48.748;2.222;2024-03-02T14:17:51;3.17;;;1.20;;
29344;SDS011;16339;48.748;2.222;2024-03-02T14:20:20;2.28;;;1.10;;
29344;SDS011;16339;48.748;2.222;2024-03-02T14:22:49;0.82;;;0.82;;
29344;SDS011;16339;48.748;2.222;2024-03-02T14:25:18;1.95;;;0.90;;
29344;SDS011;16339;48.748;2.222;2024-03-02T14:27:50;1.38;;;0.80;;
29344;SDS011;16339;48.748;2.222;2024-03-02T14:30:21;2.95;;;0.88;;
29344;SDS011;16339;48.748;2.222;2024-03-02T14:32:50;0.52;;;0.52;;
29344;SDS011;16339;48.748;2.222;2024-03-02T14:35:19;3.10;;;0.88;;
29344;SDS011;16339;48.748;2.222;2024-03-02T14:37:47;2.65;;;0.63;;
29344;SDS011;16339;48.748;2.222;2024-03-02T14:40:17;0.80;;;0.70;;
29344;SDS011;16339;48.748;2.222;2024-03-02T14:42:49;1.30;;;0.90;;
29344;SDS011;16339;48.748;2.222;2024-03-02T14:45:17;1.90;;;0.80;;
29344;SDS011;16339;48.748;2.222;2024-03-02T14:47:46;2.30;;;1.17;;
29344;SDS011;16339;48.748;2.222;2024-03-02T14:50:15;1.45;;;1.05;;
29344;SDS011;16339;48.748;2.222;2024-03-02T14:52:44;1.00;;;0.85;;
29344;SDS011;16339;48.748;2.222;2024-03-02T14:55:14;5.30;;;1.00;;
29344;SDS011;16339;48.748;2.222;2024-03-02T14:57:49;3.92;;;1.15;;
29344;SDS011;16339;48.748;2.222;2024-03-02T15:00:20;1.70;;;1.13;;
29344;SDS011;16339;48.748;2.222;2024-03-02T15:02:50;2.67;;;1.00;;
29344;SDS011;16339;48.748;2.222;2024-03-02T15:05:26;2.47;;;1.23;;
29344;SDS011;16339;48.748;2.222;2024-03-02T15:07:55;6.20;;;2.78;;
29344;SDS011;16339;48.748;2.222;2024-03-02T15:10:24;10.05;;;5.30;;
29344;SDS011;16339;48.748;2.222;2024-03-02T15:12:56;15.32;;;6.22;;
29344;SDS011;16339;48.748;2.222;2024-03-02T15:15:25;8.10;;;2.95;;
29344;SDS011;16339;48.748;2.222;2024-03-02T15:17:54;8.63;;;2.70;;
29344;SDS011;16339;48.748;2.222;2024-03-02T15:20:28;3.25;;;2.42;;
29344;SDS011;16339;48.748;2.222;2024-03-02T15:22:59;2.22;;;1.58;;
29344;SDS011;16339;48.748;2.222;2024-03-02T15:25:31;1.77;;;1.35;;
29344;SDS011;16339;48.748;2.222;2024-03-02T15:28:09;1.52;;;1.20;;
29344;SDS011;16339;48.748;2.222;2024-03-02T15:30:42;2.70;;;1.05;;
29344;SDS011;16339;48.748;2.222;2024-03-02T15:33:11;2.22;;;1.50;;
29344;SDS011;16339;48.748;2.222;2024-03-02T15:35:46;5.20;;;2.20;;
29344;SDS011;16339;48.748;2.222;2024-03-02T15:38:17;2.00;;;1.58;;
29344;SDS011;16339;48.748;2.222;2024-03-02T15:40:47;1.27;;;1.00;;
29344;SDS011;16339;48.748;2.222;2024-03-02T15:43:18;4.25;;;0.95;;